Time;durP1;ratioP1;P1;durP2;ratioP2;P2;SDS_P1;SDS_P2;PMS_P1;PMS_P2;Temp;Humidity;BMP_temperature;BMP_pressure;BME280_temperature;BME280_humidity;BME280_pressure;Samples;Min_cycle;Max_cycle;Signal;HPM_P1;HPM_P2
2022/09/05 00:00:13;;;;;;;6.38;5.32;;;;;;;18.66;59.03;101755.53;6129777;23;20334;-92
2022/09/05 00:03:06;;;;;;;5.25;4.28;;;;;;;18.74;56.63;101764.84;6189862;23;20014;-92
2022/09/05 00:06:09;;;;;;;4.85;4.30;;;;;;;18.72;56.06;101772.13;6189216;23;20009;-93
2022/09/05 00:08:46;;;;;;;8.85;5.57;;;;;;;18.25;60.66;101766.84;6189547;23;20008;-93
2022/09/05 00:11:24;;;;;;;7.97;4.82;;;;;;;18.13;59.43;101748.81;6189402;23;20031;-91
2022/09/05 00:14:01;;;;;;;6.75;5.53;;;;;;;18.27;59.23;101768.47;6190454;23;20055;-92
2022/09/05 00:20:21;;;;;;;7.60;5.13;;;;;;;17.99;59.71;101736.22;6216221;23;20054;-93
2022/09/05 00:23:18;;;;;;;5.28;4.70;;;;;;;18.21;57.75;101760.81;6189716;23;20000;-96
2022/09/05 00:29:42;;;;;;;11.25;5.32;;;;;;;17.78;58.57;101723.13;6216542;23;20007;-94
2022/09/05 00:33:06;;;;;;;9.13;5.93;;;;;;;18.02;57.63;101766.34;6189682;23;20135;-95
2022/09/05 00:35:59;;;;;;;8.15;5.70;;;;;;;17.82;57.85;101723.81;6215315;23;20087;-94
2022/09/05 00:38:49;;;;;;;6.85;6.00;;;;;;;17.56;60.85;101743.94;6185864;23;20345;-94
2022/09/05 00:44:55;;;;;;;8.93;6.53;;;;;;;17.60;59.66;101748.16;6216334;23;20022;-95
2022/09/05 00:51:22;;;;;;;11.80;6.28;;;;;;;17.53;59.54;101761.03;6216129;23;20062;-96
2022/09/05 00:57:37;;;;;;;10.82;6.82;;;;;;;17.36;59.84;101738.81;6216319;23;20022;-95
2022/09/05 01:00:22;;;;;;;8.27;6.78;;;;;;;17.59;58.91;101746.44;6190320;23;20071;-93
2022/09/05 01:02:50;;;;;;;10.35;6.38;;;;;;;17.49;59.81;101743.44;6189663;23;20009;-94
2022/09/05 01:05:37;;;;;;;9.68;6.65;;;;;;;17.53;58.80;101731.63;6189858;23;20008;-94
2022/09/05 01:11:45;;;;;;;12.35;8.18;;;;;;;17.55;59.50;101723.50;6216180;23;20333;-95
2022/09/05 01:14:50;;;;;;;12.52;9.02;;;;;;;17.59;59.99;101747.31;6189690;23;20012;-94
2022/09/05 01:17:28;;;;;;;15.45;10.68;;;;;;;17.40;60.36;101741.25;6189166;23;20008;-94
2022/09/05 01:23:40;;;;;;;14.85;10.70;;;;;;;17.21;60.53;101745.88;6216413;23;20019;-95
2022/09/05 01:29:58;;;;;;;14.55;9.23;;;;;;;17.29;60.27;101749.81;6216338;23;20340;-94
2022/09/05 01:33:02;;;;;;;17.80;11.27;;;;;;;17.33;60.62;101751.41;6189184;23;20005;-95
2022/09/05 01:36:00;;;;;;;18.35;10.50;;;;;;;17.34;60.28;101752.25;6189801;23;20012;-94
2022/09/05 01:42:28;;;;;;;19.45;10.88;;;;;;;17.40;59.63;101738.56;6124184;23;20428;-95
2022/09/05 01:45:20;;;;;;;16.17;10.18;;;;;;;17.35;61.10;101732.63;6123965;23;20546;-94
2022/09/05 01:55:11;;;;;;;18.58;11.70;;;;;;;16.86;61.92;101743.22;6216359;23;20076;-95
2022/09/05 02:01:49;;;;;;;21.27;12.40;;;;;;;16.85;61.71;101746.00;6216607;23;20328;-94
2022/09/05 02:04:51;;;;;;;17.55;11.52;;;;;;;16.88;60.92;101727.13;6165703;23;20019;-94
2022/09/05 02:11:17;;;;;;;18.48;11.63;;;;;;;17.01;60.78;101741.56;6215946;23;20016;-94
2022/09/05 02:17:21;;;;;;;19.08;11.95;;;;;;;17.01;62.30;101753.09;6215444;23;20436;-94
2022/09/05 02:23:45;;;;;;;20.65;11.98;;;;;;;17.11;61.12;101756.16;6215372;23;20016;-94
2022/09/05 02:30:14;;;;;;;19.55;11.98;;;;;;;17.01;61.37;101757.59;6215565;23;20007;-93
2022/09/05 02:33:27;;;;;;;;;;;;;;;;;;;;;
2022/09/05 02:39:53;;;;;;;17.70;11.18;;;;;;;16.88;62.02;101765.41;6215502;23;20008;-94
2022/09/05 02:42:42;;;;;;;20.25;11.68;;;;;;;16.83;62.61;101760.28;6188651;23;20005;-95
2022/09/05 02:45:49;;;;;;;20.77;12.50;;;;;;;16.51;62.26;101732.53;6188657;23;20429;-94
2022/09/05 02:52:11;;;;;;;18.30;12.25;;;;;;;16.43;62.41;101725.84;6095053;23;20034;-95
2022/09/05 02:58:45;;;;;;;16.13;12.18;;;;;;;16.41;63.05;101731.25;6094733;23;20138;-95
2022/09/05 03:04:45;;;;;;;17.40;11.55;;;;;;;16.39;63.33;101719.78;6096172;23;20070;-94
2022/09/05 03:07:51;;;;;;;15.70;11.82;;;;;;;16.68;62.61;101761.03;6143415;23;20127;-95
2022/09/05 03:14:02;;;;;;;17.02;11.25;;;;;;;16.66;62.27;101757.59;6216999;23;20519;-93
2022/09/05 03:16:52;;;;;;;15.40;11.30;;;;;;;16.51;62.65;101745.03;6190962;23;20005;-93
2022/09/05 03:23:30;;;;;;;15.07;10.93;;;;;;;16.53;63.77;101754.66;6216897;23;20060;-94
2022/09/05 03:26:26;;;;;;;16.65;11.82;;;;;;;16.46;63.62;101760.38;6190584;23;20005;-93
2022/09/05 03:32:33;;;;;;;19.30;11.48;;;;;;;16.06;63.61;101720.53;6217039;23;20058;-95
2022/09/05 03:35:04;;;;;;;14.15;10.38;;;;;;;16.21;63.86;101760.75;6190592;23;20054;-95
2022/09/05 03:37:55;;;;;;;15.87;11.37;;;;;;;16.24;63.70;101764.13;6191023;23;20446;-94
2022/09/05 03:40:35;;;;;;;15.40;11.55;;;;;;;16.15;64.34;101747.72;6189344;23;20004;-96
2022/09/05 03:46:35;;;;;;;15.70;10.55;;;;;;;15.79;64.36;101732.53;6216519;22;20007;-93
2022/09/05 03:49:17;;;;;;;14.10;11.07;;;;;;;15.76;64.50;101730.00;6190109;23;20020;-93
2022/09/05 03:52:11;;;;;;;16.27;11.75;;;;;;;15.82;65.32;101745.72;6190950;23;20377;-93
2022/09/05 03:54:53;;;;;;;16.08;11.35;;;;;;;15.59;65.32;101722.78;6167687;23;20008;-94
2022/09/05 03:57:25;;;;;;;19.25;11.95;;;;;;;15.54;66.71;101722.13;6189558;23;20008;-93
2022/09/05 04:03:18;;;;;;;16.50;11.90;;;;;;;15.36;67.55;101712.34;6216458;23;20026;-93
2022/09/05 04:06:03;;;;;;;15.95;11.98;;;;;;;15.57;68.29;101745.97;6189724;23;20008;-93
2022/09/05 04:12:12;;;;;;;15.98;10.50;;;;;;;15.75;66.13;101747.81;6215941;23;20015;-94
2022/09/05 04:14:48;;;;;;;16.38;10.82;;;;;;;15.80;65.24;101761.78;6189732;23;20011;-94
2022/09/05 04:20:46;;;;;;;15.25;11.13;;;;;;;15.52;67.83;101716.00;6216595;23;20011;-94
2022/09/05 04:23:36;;;;;;;16.30;11.48;;;;;;;15.82;65.70;101767.06;6189508;23;20036;-95
2022/09/05 04:30:06;;;;;;;14.88;11.40;;;;;;;15.75;65.55;101766.47;6216780;23;20012;-94
2022/09/05 04:32:56;;;;;;;17.48;9.98;;;;;;;15.72;65.12;101763.09;6189861;23;20095;-93
2022/09/05 04:35:24;;;;;;;13.68;10.77;;;;;;;15.34;66.79;101741.72;6215890;23;20352;-94
2022/09/05 04:41:26;;;;;;;12.10;10.43;;;;;;;15.27;66.22;101732.28;6216111;23;20010;-95
2022/09/05 04:44:32;;;;;;;15.68;10.98;;;;;;;15.39;66.40;101753.03;6189344;23;20004;-93
2022/09/05 04:47:09;;;;;;;12.77;10.55;;;;;;;15.28;67.50;101744.66;6177946;23;20056;-92
2022/09/05 04:49:53;;;;;;;14.10;10.40;;;;;;;15.16;66.53;101734.56;6189798;23;20000;-94
2022/09/05 04:52:30;;;;;;;15.20;11.18;;;;;;;15.35;67.18;101774.56;6189928;23;20013;-93
2022/09/05 04:58:43;;;;;;;15.10;11.05;;;;;;;15.21;65.87;101740.56;6216338;23;20007;-94
2022/09/05 05:01:17;;;;;;;14.38;11.07;;;;;;;15.22;68.10;101750.25;6189888;23;20103;-93
2022/09/05 05:03:49;;;;;;;16.48;11.27;;;;;;;14.96;67.86;101730.97;6189477;23;20013;-94
2022/09/05 05:09:56;;;;;;;13.70;10.45;;;;;;;14.98;66.43;101746.91;6215878;23;20011;-94
2022/09/05 05:12:51;;;;;;;12.80;10.80;;;;;;;15.14;68.48;101779.91;6215741;23;20486;-93
2022/09/05 05:15:23;;;;;;;16.00;10.48;;;;;;;15.20;68.38;101798.28;6188374;23;20012;-93
2022/09/05 05:18:25;;;;;;;14.93;10.73;;;;;;;15.28;66.79;101787.28;6188757;23;20384;-93
2022/09/05 05:21:14;;;;;;;12.63;10.60;;;;;;;15.05;68.02;101748.34;6188592;23;20083;-94
2022/09/05 05:23:51;;;;;;;14.65;10.68;;;;;;;15.10;67.89;101775.63;6189014;23;20012;-93
2022/09/05 05:30:09;;;;;;;13.38;10.75;;;;;;;15.18;67.31;101784.16;6216020;23;20015;-94
2022/09/05 05:32:43;;;;;;;16.05;11.05;;;;;;;15.07;68.46;101785.56;6188430;23;20001;-95
2022/09/05 05:38:57;;;;;;;19.33;10.55;;;;;;;15.27;67.99;101765.09;6217238;23;20010;-95
2022/09/05 05:44:55;;;;;;;14.30;10.73;;;;;;;15.47;67.26;101777.50;6215640;23;20055;-93
2022/09/05 05:48:01;;;;;;;15.93;10.85;;;;;;;15.60;67.00;101785.81;6187269;23;20039;-93
2022/09/05 05:54:27;;;;;;;14.38;10.10;;;;;;;15.75;66.96;101770.94;6185842;23;20008;-94
2022/09/05 06:00:51;;;;;;;13.93;10.30;;;;;;;15.84;66.91;101769.66;6185615;23;20019;-94
2022/09/05 06:03:50;;;;;;;14.73;10.65;;;;;;;15.94;67.48;101797.59;6159163;23;20137;-95
2022/09/05 06:06:27;;;;;;;17.05;12.13;;;;;;;15.92;68.52;101789.69;6159604;23;20087;-94
2022/09/05 06:12:40;;;;;;;18.27;12.98;;;;;;;15.98;69.90;101796.53;6186123;23;20027;-93
2022/09/05 06:16:00;;;;;;;17.20;13.73;;;;;;;16.05;70.02;101790.84;6107710;23;20009;-95
2022/09/05 06:22:14;;;;;;;15.70;12.98;;;;;;;16.32;69.60;101798.44;6184626;23;20464;-91
2022/09/05 06:58:24;;;;;;;18.75;14.27;;;;;;;18.90;63.06;101817.53;6225457;22;20056;-96
2022/09/05 07:01:00;;;;;;;17.05;13.60;;;;;;;19.10;62.16;101822.56;6177608;23;20016;-96
2022/09/05 07:03:56;;;;;;;16.30;13.00;;;;;;;19.29;61.30;101815.13;6171755;23;20333;-96
2022/09/05 07:07:01;;;;;;;20.40;13.75;;;;;;;19.44;61.67;101810.63;6149667;23;20033;-96
2022/09/05 07:10:05;;;;;;;20.02;13.75;;;;;;;19.57;60.60;101797.31;6179343;23;19985;-96
2022/09/05 07:13:11;;;;;;;16.42;12.35;;;;;;;19.68;60.13;101778.78;6058868;23;20088;-96
2022/09/05 07:16:02;;;;;;;15.20;12.35;;;;;;;19.99;59.77;101819.75;6054175;23;20015;-95
2022/09/05 07:18:46;;;;;;;18.77;12.18;;;;;;;20.21;59.02;101825.47;6159858;23;20008;-95
2022/09/05 07:21:49;;;;;;;16.17;11.85;;;;;;;20.37;59.63;101831.53;6163629;23;20132;-95
2022/09/05 07:24:21;;;;;;;20.17;13.02;;;;;;;20.45;58.48;101824.81;6157403;23;20115;-95
2022/09/05 07:26:48;;;;;;;14.00;11.57;;;;;;;20.55;57.46;101818.75;6155568;23;20240;-93
2022/09/05 07:29:21;;;;;;;17.08;12.13;;;;;;;20.67;57.47;101832.34;6132280;23;20013;-94
2022/09/05 07:31:54;;;;;;;21.70;12.73;;;;;;;20.69;56.82;101815.13;6155147;23;20032;-94
2022/09/05 07:34:23;;;;;;;16.33;13.20;;;;;;;20.85;56.11;101823.91;6155326;23;20012;-94
2022/09/05 07:36:53;;;;;;;19.10;12.80;;;;;;;21.00;56.53;101826.53;6156504;23;20539;-94
2022/09/05 07:39:25;;;;;;;13.65;11.32;;;;;;;21.23;55.39;101828.47;6156893;23;20115;-93
2022/09/05 07:41:56;;;;;;;14.77;11.98;;;;;;;21.45;54.49;101825.19;6182080;23;20005;-92
2022/09/05 07:44:29;;;;;;;15.65;11.23;;;;;;;21.67;54.36;101829.91;6155563;23;20013;-93
2022/09/05 07:47:04;;;;;;;12.93;9.57;;;;;;;21.98;52.81;101844.72;6154121;23;20020;-94
2022/09/05 07:49:34;;;;;;;12.55;9.30;;;;;;;22.31;51.19;101835.19;6154671;23;20056;-92
2022/09/05 07:52:09;;;;;;;18.30;10.50;;;;;;;22.63;50.08;101840.88;6154621;23;20005;-92
2022/09/05 07:54:40;;;;;;;13.43;9.25;;;;;;;22.80;49.05;101845.84;6154566;23;20000;-93
2022/09/05 07:57:09;;;;;;;13.07;9.20;;;;;;;23.08;48.40;101841.94;6154821;23;20056;-93
2022/09/05 07:59:37;;;;;;;13.90;9.63;;;;;;;23.33;48.11;101840.88;6222756;22;20087;-92
2022/09/05 08:02:07;;;;;;;13.70;9.77;;;;;;;23.57;47.35;101842.63;6213618;23;20280;-91
2022/09/05 08:04:35;;;;;;;12.80;9.70;;;;;;;23.84;46.84;101845.88;6212970;23;20412;-91
2022/09/05 08:07:07;;;;;;;15.60;8.48;;;;;;;24.17;47.00;101847.69;6240232;22;20061;-90
2022/09/05 08:09:37;;;;;;;11.80;7.35;;;;;;;24.56;45.23;101849.94;6240635;23;20087;-90
2022/09/05 08:12:12;;;;;;;15.60;7.15;;;;;;;25.03;45.03;101845.06;6239861;23;20007;-90
2022/09/05 08:14:44;;;;;;;9.65;7.18;;;;;;;25.55;43.55;101851.41;6213720;23;19996;-90
2022/09/05 08:17:16;;;;;;;9.77;6.68;;;;;;;25.74;42.59;101840.69;6241143;22;20010;-90
2022/09/05 08:20:06;;;;;;;8.37;5.73;;;;;;;26.01;42.13;101850.94;6240579;23;20007;-90
2022/09/05 08:22:45;;;;;;;8.95;6.22;;;;;;;26.05;42.35;101843.41;6214499;23;20246;-91
2022/09/05 08:25:17;;;;;;;6.65;5.45;;;;;;;26.18;40.54;101844.00;6240331;22;20014;-91
2022/09/05 08:28:27;;;;;;;5.78;4.45;;;;;;;26.82;39.51;101846.28;6241009;22;20007;-91
2022/09/05 08:31:01;;;;;;;7.00;4.60;;;;;;;26.98;40.34;101836.69;6240856;23;20079;-91
2022/09/05 08:33:33;;;;;;;8.52;5.18;;;;;;;27.75;39.38;101844.72;6240828;22;20011;-89
2022/09/05 08:36:25;;;;;;;8.10;4.60;;;;;;;28.19;36.22;101843.03;6240217;22;20463;-90
2022/09/05 08:38:53;;;;;;;;;;;;;;;28.46;38.97;101852.22;6241114;23;20081;-91
2022/09/05 08:41:27;;;;;;;9.40;4.75;;;;;;;28.56;37.19;101852.16;6213589;23;19989;-91
2022/09/05 08:44:05;;;;;;;9.00;5.25;;;;;;;29.03;36.40;101843.75;6239431;23;20000;-90
2022/09/05 08:46:42;;;;;;;8.70;5.00;;;;;;;29.44;36.20;101843.03;6240049;23;20328;-90
2022/09/05 08:49:45;;;;;;;10.60;4.75;;;;;;;29.76;36.53;101852.44;6240190;23;20011;-90
2022/09/05 08:52:29;;;;;;;8.93;4.63;;;;;;;29.78;35.94;101852.28;6213641;22;20000;-91
2022/09/05 08:55:12;;;;;;;9.77;4.57;;;;;;;29.58;35.92;101848.94;6215252;23;20007;-91
2022/09/05 08:58:19;;;;;;;7.15;3.75;;;;;;;30.49;34.84;101841.78;6239715;23;20000;-89
2022/09/05 09:01:18;;;;;;;6.55;3.35;;;;;;;30.51;34.12;101836.19;6239165;22;20050;-90
2022/09/05 09:04:31;;;;;;;9.07;3.25;;;;;;;30.66;33.68;101830.91;6164061;23;20164;-91
2022/09/05 09:07:11;;;;;;;5.32;2.97;;;;;;;30.42;32.20;101832.59;6092186;23;20054;-91
2022/09/05 09:09:50;;;;;;;13.90;3.92;;;;;;;31.05;33.10;101825.66;6209496;23;20023;-91
2022/09/05 09:12:55;;;;;;;9.05;3.22;;;;;;;31.85;30.94;101825.69;6213155;23;20066;-89
2022/09/05 09:15:48;;;;;;;8.55;3.25;;;;;;;32.25;31.00;101832.81;6236612;23;20093;-90
2022/09/05 09:18:18;;;;;;;4.05;3.08;;;;;;;32.67;29.50;101819.75;6239124;22;20332;-87
2022/09/05 09:20:48;;;;;;;5.07;2.63;;;;;;;32.70;27.28;101822.13;6213213;23;20007;-87
2022/09/05 09:23:17;;;;;;;4.90;2.83;;;;;;;33.36;27.05;101816.91;6212949;23;20007;-86
2022/09/05 09:26:04;;;;;;;4.95;2.30;;;;;;;33.58;27.09;101821.50;6212349;23;20012;-88
2022/09/05 09:28:42;;;;;;;8.52;2.85;;;;;;;33.48;25.56;101821.78;6213990;23;20427;-92
2022/09/05 09:31:22;;;;;;;8.73;2.75;;;;;;;34.07;24.33;101818.13;6238782;22;20011;-90
2022/09/05 09:34:12;;;;;;;5.55;2.20;;;;;;;34.43;26.38;101801.66;6238425;22;20030;-90
2022/09/05 09:37:18;;;;;;;4.03;2.20;;;;;;;34.34;25.99;101816.56;6211465;23;20511;-92
2022/09/05 09:40:16;;;;;;;7.05;2.65;;;;;;;34.63;25.14;101795.53;6239986;22;20047;-90
2022/09/05 09:43:00;;;;;;;5.70;2.05;;;;;;;35.29;24.61;101801.56;6211643;23;20010;-90
2022/09/05 09:45:52;;;;;;;3.00;2.00;;;;;;;36.00;23.78;101793.97;6211131;23;20095;-94
2022/09/05 09:48:36;;;;;;;;;;;;;;;36.41;21.45;101815.03;6241226;22;20019;-87
2022/09/05 09:53:52;;;;;;;3.50;1.80;;;;;;;36.61;21.92;101809.59;6179257;23;20029;-89
2022/09/05 09:56:51;;;;;;;5.30;1.75;;;;;;;36.14;21.16;101792.09;6172676;23;20005;-93
2022/09/05 09:59:41;;;;;;;5.07;2.10;;;;;;;36.10;21.48;101806.50;6153674;23;20532;-90
2022/09/05 10:02:14;;;;;;;3.88;1.90;;;;;;;36.65;20.72;101802.56;6179090;23;20029;-90
2022/09/05 10:05:07;;;;;;;3.67;1.90;;;;;;;37.40;19.60;101799.59;6152132;23;20340;-91
2022/09/05 10:07:57;;;;;;;4.13;1.80;;;;;;;37.13;19.49;101798.81;6152341;23;20013;-92
2022/09/05 10:10:43;;;;;;;1.48;1.38;;;;;;;37.09;20.24;101797.53;6179574;23;20032;-91
2022/09/05 10:13:39;;;;;;;3.30;1.48;;;;;;;37.10;19.96;101794.53;6155583;23;20432;-91
2022/09/05 10:16:28;;;;;;;4.75;1.90;;;;;;;36.94;19.14;101795.84;6178283;23;20005;-91
2022/09/05 10:19:18;;;;;;;7.40;2.45;;;;;;;36.95;19.27;101774.63;6154412;23;20005;-92
2022/09/05 10:21:50;;;;;;;4.00;1.40;;;;;;;37.00;19.06;101772.94;6154747;23;20012;-91
2022/09/05 10:24:40;;;;;;;3.88;1.95;;;;;;;36.74;19.48;101767.38;6180114;23;20016;-91
2022/09/05 10:27:12;;;;;;;4.38;1.73;;;;;;;36.77;18.70;101759.56;6179076;23;20005;-91
2022/09/05 10:30:05;;;;;;;3.83;1.65;;;;;;;36.78;18.91;101775.03;6180998;23;20469;-92
2022/09/05 10:32:56;;;;;;;2.30;1.67;;;;;;;36.45;19.66;101769.50;6155819;23;20019;-91
2022/09/05 10:35:32;;;;;;;3.53;1.80;;;;;;;36.18;19.35;101768.56;6180540;23;20015;-93
2022/09/05 10:38:02;;;;;;;4.93;1.55;;;;;;;35.99;19.44;101778.47;6154622;23;20440;-92
2022/09/05 10:40:32;;;;;;;4.43;1.38;;;;;;;36.22;19.21;101767.09;6130808;23;20012;-92
2022/09/05 10:43:09;;;;;;;2.03;1.38;;;;;;;35.87;19.71;101763.59;6180178;23;20454;-92
2022/09/05 10:45:53;;;;;;;1.75;1.33;;;;;;;35.90;19.80;101760.41;6154322;23;20331;-92
2022/09/05 10:48:18;;;;;;;6.15;1.90;;;;;;;35.25;20.48;101759.91;6154176;23;20444;-92
2022/09/05 10:50:51;;;;;;;4.53;1.40;;;;;;;35.38;20.06;101756.38;6154563;23;20013;-91
2022/09/05 10:54:01;;;;;;;1.90;1.60;;;;;;;35.88;20.74;101762.53;6180039;23;20437;-90
2022/09/05 10:56:46;;;;;;;2.08;1.58;;;;;;;36.43;20.62;101754.25;6209906;23;20332;-91
2022/09/05 10:59:30;;;;;;;2.70;1.50;;;;;;;36.95;20.23;101755.34;6211387;23;20016;-90
2022/09/05 11:02:13;;;;;;;3.65;1.52;;;;;;;36.92;19.58;101753.84;6183941;23;20005;-91
2022/09/05 11:04:44;;;;;;;3.33;1.45;;;;;;;37.12;18.06;101751.06;6184043;23;20004;-90
2022/09/05 11:07:28;;;;;;;2.35;1.55;;;;;;;36.44;19.37;101753.19;6210928;23;20745;-90
2022/09/05 11:09:58;;;;;;;1.40;1.30;;;;;;;35.92;19.40;101749.22;6186262;23;20036;-91
2022/09/05 11:13:02;;;;;;;2.55;1.05;;;;;;;35.94;20.09;101753.44;6210705;23;20004;-91
2022/09/05 11:15:40;;;;;;;2.03;1.50;;;;;;;35.80;20.07;101750.88;6184152;23;20016;-91
2022/09/05 11:18:14;;;;;;;2.78;1.40;;;;;;;35.60;19.64;101742.53;6185108;23;20036;-93
2022/09/05 11:21:30;;;;;;;2.85;1.40;;;;;;;36.01;20.50;101735.09;6186009;23;20009;-93
2022/09/05 11:24:22;;;;;;;2.80;1.30;;;;;;;36.25;20.04;101730.06;6135541;23;20067;-92
2022/09/05 11:27:06;;;;;;;2.50;1.33;;;;;;;36.33;19.57;101738.13;6178751;23;20009;-92
2022/09/05 11:29:43;;;;;;;2.40;1.27;;;;;;;36.26;19.23;101738.09;6185839;23;20008;-92
2022/09/05 11:32:45;;;;;;;1.45;1.10;;;;;;;36.40;19.48;101735.38;6211898;23;20439;-91
2022/09/05 11:35:19;;;;;;;1.40;1.30;;;;;;;36.80;19.39;101733.50;6184538;23;20384;-91
2022/09/05 11:37:59;;;;;;;4.15;1.63;;;;;;;36.80;19.15;101733.50;6185743;23;20474;-93
2022/09/05 11:40:32;;;;;;;4.25;1.42;;;;;;;36.86;19.18;101721.59;6210289;23;20012;-93
2022/09/05 11:42:57;;;;;;;2.63;1.40;;;;;;;36.42;18.31;101734.09;6184467;23;20344;-95
2022/09/05 11:46:14;;;;;;;6.77;1.90;;;;;;;36.78;19.12;101730.94;6181189;23;20004;-93
2022/09/05 11:49:17;;;;;;;21.27;2.80;;;;;;;36.69;20.08;101732.19;6135201;23;20008;-92
2022/09/05 11:52:07;;;;;;;1.50;1.33;;;;;;;36.75;19.65;101728.63;6183284;23;20016;-93
2022/09/05 11:54:55;;;;;;;3.10;1.27;;;;;;;37.29;18.13;101729.38;6184366;23;20064;-93
2022/09/05 11:57:52;;;;;;;1.42;1.33;;;;;;;37.13;19.00;101729.84;6184824;23;20009;-93
2022/09/05 12:00:19;;;;;;;3.67;1.20;;;;;;;36.96;18.27;101721.19;6184520;23;20019;-93
2022/09/05 12:03:04;;;;;;;1.63;1.38;;;;;;;37.00;18.96;101728.81;6210567;23;20476;-94
2022/09/05 12:05:51;;;;;;;2.75;1.40;;;;;;;37.35;18.53;101731.25;6211892;23;20793;-95
2022/09/05 12:08:43;;;;;;;3.22;1.40;;;;;;;37.73;18.33;101719.47;6184892;23;20005;-94
2022/09/05 12:11:19;;;;;;;2.70;1.10;;;;;;;37.57;18.28;101717.19;6211686;23;20519;-93
2022/09/05 12:14:03;;;;;;;3.97;1.30;;;;;;;37.29;18.97;101715.59;6183512;23;20441;-95
2022/09/05 12:16:45;;;;;;;3.58;1.20;;;;;;;37.01;17.63;101702.09;6182938;23;20032;-94
2022/09/05 12:19:31;;;;;;;2.75;1.52;;;;;;;37.08;18.45;101715.88;6211875;23;20026;-94
2022/09/05 12:22:21;;;;;;;2.85;1.55;;;;;;;37.15;18.07;101713.94;6185014;23;20015;-93
2022/09/05 12:25:11;;;;;;;3.10;1.50;;;;;;;36.83;18.11;101707.38;6182593;23;20004;-93
2022/09/05 12:27:38;;;;;;;2.30;1.60;;;;;;;37.11;17.46;101696.13;6211966;23;20367;-92
2022/09/05 12:30:10;;;;;;;1.60;1.23;;;;;;;36.97;17.39;101698.91;6210223;23;20008;-93
2022/09/05 12:32:54;;;;;;;1.45;1.35;;;;;;;36.97;18.63;101698.91;6210963;23;20038;-94
2022/09/05 12:35:24;;;;;;;1.50;1.40;;;;;;;37.34;17.74;101703.91;6209912;23;20008;-93
2022/09/05 12:38:09;;;;;;;2.83;1.27;;;;;;;37.10;18.00;101698.03;6185339;23;20352;-95
2022/09/05 12:40:41;;;;;;;3.58;1.60;;;;;;;36.64;18.35;101695.34;6186775;23;20004;-93
2022/09/05 12:43:11;;;;;;;1.67;1.55;;;;;;;36.63;17.80;101682.63;6211508;23;20004;-93
2022/09/05 12:45:54;;;;;;;4.10;1.40;;;;;;;37.37;18.37;101701.56;6211169;23;20015;-92
2022/09/05 12:48:51;;;;;;;1.27;1.23;;;;;;;37.58;18.04;101694.06;6184463;23;20005;-93
2022/09/05 12:51:20;;;;;;;3.25;1.52;;;;;;;37.68;17.15;101692.53;6210902;23;20011;-94
2022/09/05 12:53:48;;;;;;;1.50;1.35;;;;;;;37.46;17.37;101683.72;6211122;23;20004;-92
2022/09/05 12:56:28;;;;;;;2.63;1.50;;;;;;;37.46;18.26;101680.13;6182176;23;20318;-93
2022/09/05 12:58:54;;;;;;;6.65;1.50;;;;;;;37.38;17.18;101683.13;6183385;23;20030;-94
2022/09/05 13:01:29;;;;;;;4.32;1.48;;;;;;;37.52;17.39;101682.84;6182759;23;20007;-94
2022/09/05 13:04:04;;;;;;;2.28;1.50;;;;;;;37.36;17.35;101676.97;6211254;23;20492;-93
2022/09/05 13:06:38;;;;;;;2.70;1.60;;;;;;;36.93;18.21;101667.31;6208734;23;20310;-93
2022/09/05 13:09:18;;;;;;;1.50;1.25;;;;;;;37.30;17.34;101684.16;6210438;23;20008;-94
2022/09/05 13:12:03;;;;;;;3.30;1.77;;;;;;;37.29;18.20;101675.06;6184488;23;20012;-93
2022/09/05 13:14:35;;;;;;;2.75;1.55;;;;;;;37.28;18.00;101665.09;6209112;23;20000;-92
2022/09/05 13:17:04;;;;;;;2.22;1.45;;;;;;;37.46;17.62;101664.41;6183334;23;20008;-93
2022/09/05 13:19:43;;;;;;;3.50;1.65;;;;;;;37.86;16.73;101664.19;6211268;23;20035;-93
2022/09/05 13:22:13;;;;;;;2.83;1.45;;;;;;;37.81;17.22;101660.38;6211600;23;20001;-92
2022/09/05 13:24:41;;;;;;;2.00;1.50;;;;;;;38.19;17.13;101657.56;6208677;23;20035;-93
2022/09/05 13:27:25;;;;;;;1.92;1.40;;;;;;;38.40;17.38;101657.22;6183895;23;20004;-91
2022/09/05 13:29:54;;;;;;;2.58;1.30;;;;;;;38.11;17.46;101649.59;6180327;23;20623;-91
2022/09/05 13:32:33;;;;;;;1.55;1.45;;;;;;;38.53;17.11;101646.03;6210745;23;20036;-91
2022/09/05 13:35:18;;;;;;;2.22;1.30;;;;;;;38.85;17.61;101654.25;6184148;23;20459;-91
2022/09/05 13:37:47;;;;;;;4.13;1.50;;;;;;;39.16;16.72;101644.09;6182855;23;20100;-91
2022/09/05 13:40:23;;;;;;;2.75;1.67;;;;;;;39.45;16.78;101648.00;6209931;23;20000;-92
2022/09/05 13:43:11;;;;;;;4.25;1.70;;;;;;;39.33;16.92;101641.59;6210379;23;20005;-94
2022/09/05 13:46:02;;;;;;;2.20;1.52;;;;;;;38.99;16.36;101627.31;6209514;23;20016;-94
2022/09/05 13:48:39;;;;;;;1.97;1.60;;;;;;;38.94;16.63;101643.72;6183962;23;20004;-95
2022/09/05 13:51:32;;;;;;;4.22;1.52;;;;;;;38.73;16.93;101642.22;6210519;23;20067;-93
2022/09/05 13:54:15;;;;;;;2.80;1.50;;;;;;;39.01;16.43;101636.19;6182992;23;20067;-94
2022/09/05 13:57:06;;;;;;;2.00;1.50;;;;;;;39.00;17.24;101638.13;6183904;23;20388;-94
2022/09/05 13:59:39;;;;;;;4.47;1.67;;;;;;;38.46;16.63;101628.66;6184098;23;20012;-94
2022/09/05 14:02:43;;;;;;;5.07;1.48;;;;;;;38.70;17.30;101628.84;6209701;23;20036;-93
2022/09/05 14:05:37;;;;;;;2.67;1.30;;;;;;;38.74;17.24;101627.31;6182299;23;20016;-93
2022/09/05 14:08:38;;;;;;;2.80;1.50;;;;;;;38.47;17.48;101622.09;6210219;23;20001;-93
2022/09/05 14:11:15;;;;;;;1.50;1.40;;;;;;;38.31;17.40;101621.81;6183249;23;20007;-94
2022/09/05 14:13:57;;;;;;;6.82;1.70;;;;;;;38.25;17.31;101629.06;6209534;23;20087;-93
2022/09/05 14:16:30;;;;;;;3.95;1.60;;;;;;;38.09;17.08;101622.19;6208362;23;20567;-93
2022/09/05 14:21:40;;;;;;;3.55;1.45;;;;;;;38.56;17.41;101616.25;6209938;23;20020;-93
2022/09/05 14:24:09;;;;;;;1.73;1.40;;;;;;;39.13;17.29;101617.75;6211477;23;20332;-93
2022/09/05 14:27:04;;;;;;;3.33;1.50;;;;;;;39.66;16.05;101608.75;6209760;23;20453;-93
2022/09/05 14:29:52;;;;;;;2.97;1.90;;;;;;;39.69;16.00;101604.69;6185623;23;20005;-93
2022/09/05 14:32:18;;;;;;;2.05;1.70;;;;;;;40.27;15.03;101603.94;6212409;23;20000;-93
2022/09/05 14:35:21;;;;;;;3.37;1.57;;;;;;;39.98;16.13;101602.94;6185681;23;20005;-94
2022/09/05 14:37:51;;;;;;;4.55;1.80;;;;;;;39.25;15.61;101598.47;6185038;23;20243;-93
2022/09/05 14:40:48;;;;;;;3.25;1.88;;;;;;;38.66;16.85;101594.44;6185043;23;20009;-94
2022/09/05 14:43:52;;;;;;;3.53;1.73;;;;;;;39.46;16.69;101592.44;6213888;23;20306;-94
2022/09/05 14:46:41;;;;;;;3.20;1.90;;;;;;;38.41;16.46;101589.84;6184803;23;20011;-93
2022/09/05 14:49:44;;;;;;;2.55;1.77;;;;;;;38.94;16.96;101586.50;6211922;23;20009;-93
2022/09/05 14:52:25;;;;;;;2.60;1.40;;;;;;;39.62;16.72;101573.44;6211087;23;20389;-94
2022/09/05 14:54:54;;;;;;;1.52;1.42;;;;;;;40.09;14.91;101579.13;6208162;23;20017;-93
2022/09/05 14:57:29;;;;;;;2.80;1.60;;;;;;;40.18;15.25;101580.44;6187097;23;20008;-93
2022/09/05 15:00:00;;;;;;;2.10;1.38;;;;;;;38.98;15.41;101573.88;6188067;23;20008;-94
2022/09/05 15:02:28;;;;;;;;;;;;;;;38.85;17.08;101573.25;6188533;23;20146;-94
2022/09/05 15:04:59;;;;;;;1.40;1.30;;;;;;;37.64;17.98;101563.50;6186341;23;19908;-93
2022/09/05 15:07:28;;;;;;;1.70;1.50;;;;;;;37.14;18.78;101575.22;6211404;23;20618;-93
2022/09/05 15:10:15;;;;;;;14.52;2.83;;;;;;;37.41;18.76;101570.44;6188193;23;20118;-93
2022/09/05 15:12:52;;;;;;;10.25;2.00;;;;;;;37.37;18.88;101563.63;6187691;23;20510;-94
2022/09/05 15:15:24;;;;;;;7.15;1.65;;;;;;;37.55;17.60;101564.81;6187020;23;20075;-93
2022/09/05 15:17:55;;;;;;;5.00;1.63;;;;;;;38.23;17.16;101548.34;6187026;23;20008;-92
2022/09/05 15:20:35;;;;;;;5.40;1.70;;;;;;;39.04;16.90;101561.06;6213425;23;20008;-92
2022/09/05 15:23:05;;;;;;;3.15;1.75;;;;;;;39.64;15.99;101555.56;6185930;23;20239;-93
2022/09/05 15:25:42;;;;;;;3.38;1.50;;;;;;;39.17;17.02;101557.25;6213603;23;20020;-91
2022/09/05 15:28:08;;;;;;;5.55;1.63;;;;;;;38.14;16.86;101547.78;6217466;23;20008;-93